メインページ
METAR-TAF:

METAR-TAF

空港 :

テヘラン, イラン

メヘラーバード国際空港

緯度: 35-41N, 経度: 051-21E, 海抜: 1204m

現時点の気象観測

当レポートは34分前の20:30(UTC)に作成
西の風 5kt
気温 14°C
湿度 36%
気圧 1020 hPa
視程10km以上
1,500メートル以下は雲なし、積乱雲なし

METAR: OIII 292030Z 27005KT CAVOK 14/M01 Q1020 A3011

時間: 01:34 (21:04 UTC)

予報

当レポートは3時間24分前の17:40(UTC)に作成
予報は29日の 18時(UTC)から 30日の 24時(UTC)まで有効
西/北西の風 8kt
視程: 7000m
30日の 04時(UTC)から 30日の 06時(UTC)まで徐々に
南/南東の風 8kt
視程: 7000m
高度3500ftの雲はほとんどない
高度10000ftの千切れ雲あり
30日の 09時(UTC)から 30日の 15時(UTC)まで一時的に
南/南東の風 14kt
視程: 7000m
高度3000ftの雲はほとんどない, 積乱雲.
高度3500ftの雲は散在している
高度10000ftの千切れ雲あり
30日の 23時(UTC)から 30日の 24時(UTC)まで徐々に
南西の風 8kt
視程: 7000m
高度4000ftの雲はほとんどない

TAF: OIII 291740Z 2918/3024 29004MPS 7000 NSC BECMG 3004/3006 16004MPS 7000 FEW035 BKN100 TEMPO 3009/3015 16007MPS 7000 FEW030CB SCT035 BKN100 BECMG 3023/3024 23004MPS 7000 FEW040

4,000以上の空港の気象観測と天気予報(METAR報とTAF報)

利用可能な観測所は地図上に黄色い丸と赤い丸で示す。

丸の上にカーソルを重ねると観測所名を参照できる。

次にクリックすると気象観測と天気予報を参照できる。

マップの切り替え:黒色「×」印の緑ボタンをクリックして拡大、「-」印の緑ボタンをクリックして縮小、緑色の三角印をクリックして隣りの地図に切り替え


METAR-TAF: